Julian, WV (25529)

8:18 PM EDT on April 25, 2015 (GMT -0400)
SOD | | Change Station
CLOSE
Current Station
Personal Weather Station
Location: Sod, WV
Elevation: 771 ft
Nearby Weather Stations
Active Advisory: Special Statement

Elev 771 ft 38.27 °N, 81.89 °W | Updated 7 seconds ago

Fog
Fog
48.0 °F
Feels Like 46 °F
N
5.0
Wind Variable Wind from West
Gusts 9.0 mph

Today
High -- | Low -- °F
--% Chance of Precip.
Yesterday
High -- | Low -- °F
Precip. -- in
6:38 AM 8:12 PM
Waxing Crescent, 50% visible
Pressure 29.63 in
Visibility 1.0 miles
Clouds Overcast 400 ft
Windchill 46 °F
Dew Point 46 °F
Humidity 93%
Rainfall 0.40 in
Snow Depth Not available.
UV 0 out of 12
Pollen 7.30 out of 12
Air Quality Not available.
Flu Activity Sporadic
METAR KCRW 252354Z 02004KT 1SM -RA BR OVC004 09/08 A2963 RMK AO2 RAB16 SLP033 CIG RGD VLY FG P0003 60054 T00890078 10094 20083 53003 RVRNO

More Conditions Fewer Conditions

Pressure 29.63 in
Visibility 1.0 miles
Clouds Overcast 400 ft
Windchill 46 °F
Dew Point 46 °F
Humidity 93%
Rainfall 0.40 in
Snow Depth Not available.
UV 0 out of 12
Pollen 7.30 out of 12
Air Quality Not available.
Flu Activity Sporadic
METAR KCRW 252354Z 02004KT 1SM -RA BR OVC004 09/08 A2963 RMK AO2 RAB16 SLP033 CIG RGD VLY FG P0003 60054 T00890078 10094 20083 53003 RVRNO

More Conditions Fewer Conditions

10-Day Weather Forecast

Almanac

Astronomy

Apr. 25, 2015 Rise Set
Actual Time
Civil Twilight
Nautical Twilight
Astronomical Twilight
Moon
Length of Visible Light
Length of Day
Tomorrow will be .
, % of the Moon is Illuminated

Today's Extremes

State Highs State Lows

Community

WunderPhotos

Upload Photos

1,816,855 photos uploaded!

WunderBlogs® & News

Nearby

Air Quality

  Air Quality AQ Index Pollutant
Not available.

Snow Depth

Station Depth Elevation

Earthquake Activity

City Distance Mag. Time & Date
Minimum magnitude displayed is 2.5.

Coastal Water Temperatures

Place Temperature

Stations

Nearby Weather Stations

Station Location Temp. Windchill Dew Point Humidity Wind Precip. Elev Updated Type
                   
Special Statement
Statement as of 8:01 PM EDT on April 25, 2015

... Special Weather Statement for northern Boone... southwestern
Kanawha and eastern Lincoln counties until 830 PM EDT...

At 759 PM EDT... a strong thunderstorm was located 10 miles north of
Madison... moving east at 30 mph.

Wind gusts to 40 mph and pea-sized hail are possible with this storm.

This storm will be near Ashford around 810 PM... Racine around 815
PM... Seth around 820 PM and Chesapeake around 825 PM.

This will impact the following Interstate... the West Virginia
Turnpike between mile markers 82 and 91.

You may report significant weather by posting your report to the
Charleston West Virginia National Weather Service facebook Page... or
by using the twitter hashtag... nwsrlx.

Lat... Lon 3827 8143 3800 8152 3819 8207 3828 8198


26